sensor_id;sensor_type;location;lat;lon;timestamp;P1;durP1;ratioP1;P2;durP2;ratioP2
23078;SDS011;11707;50.830;4.364;2023-05-10T00:01:25;14.40;;;8.32;;
23078;SDS011;11707;50.830;4.364;2023-05-10T00:03:53;16.17;;;8.43;;
23078;SDS011;11707;50.830;4.364;2023-05-10T00:06:18;15.88;;;8.50;;
23078;SDS011;11707;50.830;4.364;2023-05-10T00:08:44;17.63;;;8.20;;
23078;SDS011;11707;50.830;4.364;2023-05-10T00:11:12;15.18;;;8.68;;
23078;SDS011;11707;50.830;4.364;2023-05-10T00:13:38;22.67;;;8.65;;
23078;SDS011;11707;50.830;4.364;2023-05-10T00:16:06;15.73;;;8.25;;
23078;SDS011;11707;50.830;4.364;2023-05-10T00:18:32;13.75;;;9.13;;
23078;SDS011;11707;50.830;4.364;2023-05-10T00:20:58;16.05;;;8.40;;
23078;SDS011;11707;50.830;4.364;2023-05-10T00:23:24;17.58;;;9.07;;
23078;SDS011;11707;50.830;4.364;2023-05-10T00:25:49;15.82;;;9.07;;
23078;SDS011;11707;50.830;4.364;2023-05-10T00:28:15;14.73;;;8.70;;
23078;SDS011;11707;50.830;4.364;2023-05-10T00:30:41;16.80;;;9.00;;
23078;SDS011;11707;50.830;4.364;2023-05-10T00:33:07;15.77;;;9.52;;
23078;SDS011;11707;50.830;4.364;2023-05-10T00:35:34;15.77;;;9.95;;
23078;SDS011;11707;50.830;4.364;2023-05-10T00:38:01;18.35;;;9.32;;
23078;SDS011;11707;50.830;4.364;2023-05-10T00:40:26;15.23;;;9.20;;
23078;SDS011;11707;50.830;4.364;2023-05-10T00:42:53;15.93;;;8.73;;
23078;SDS011;11707;50.830;4.364;2023-05-10T00:45:19;14.13;;;8.82;;
23078;SDS011;11707;50.830;4.364;2023-05-10T00:47:45;15.40;;;10.00;;
23078;SDS011;11707;50.830;4.364;2023-05-10T00:50:10;17.77;;;9.75;;
23078;SDS011;11707;50.830;4.364;2023-05-10T00:52:36;17.60;;;9.60;;
23078;SDS011;11707;50.830;4.364;2023-05-10T00:55:02;16.25;;;9.82;;
23078;SDS011;11707;50.830;4.364;2023-05-10T00:57:28;19.88;;;10.45;;
23078;SDS011;11707;50.830;4.364;2023-05-10T00:59:55;22.45;;;10.05;;
23078;SDS011;11707;50.830;4.364;2023-05-10T01:02:24;13.57;;;9.98;;
23078;SDS011;11707;50.830;4.364;2023-05-10T01:04:49;14.10;;;9.70;;
23078;SDS011;11707;50.830;4.364;2023-05-10T01:07:16;18.08;;;9.35;;
23078;SDS011;11707;50.830;4.364;2023-05-10T01:09:42;12.82;;;9.20;;
23078;SDS011;11707;50.830;4.364;2023-05-10T01:12:10;14.38;;;10.02;;
23078;SDS011;11707;50.830;4.364;2023-05-10T01:14:38;16.70;;;10.43;;
23078;SDS011;11707;50.830;4.364;2023-05-10T01:17:07;18.67;;;10.55;;
23078;SDS011;11707;50.830;4.364;2023-05-10T01:19:34;18.48;;;10.52;;
23078;SDS011;11707;50.830;4.364;2023-05-10T01:36:46;22.77;;;12.02;;
23078;SDS011;11707;50.830;4.364;2023-05-10T01:42:10;21.83;;;13.73;;
23078;SDS011;11707;50.830;4.364;2023-05-10T01:45:02;19.60;;;12.30;;
23078;SDS011;11707;50.830;4.364;2023-05-10T01:47:50;15.13;;;11.50;;
23078;SDS011;11707;50.830;4.364;2023-05-10T01:50:24;18.98;;;12.00;;
23078;SDS011;11707;50.830;4.364;2023-05-10T01:52:54;18.27;;;11.77;;
23078;SDS011;11707;50.830;4.364;2023-05-10T01:55:24;22.48;;;13.65;;
23078;SDS011;11707;50.830;4.364;2023-05-10T01:57:56;18.70;;;12.73;;
23078;SDS011;11707;50.830;4.364;2023-05-10T02:00:30;19.48;;;12.70;;
23078;SDS011;11707;50.830;4.364;2023-05-10T02:02:57;24.42;;;12.38;;
23078;SDS011;11707;50.830;4.364;2023-05-10T02:05:25;17.83;;;12.40;;
23078;SDS011;11707;50.830;4.364;2023-05-10T02:07:54;22.88;;;13.60;;
23078;SDS011;11707;50.830;4.364;2023-05-10T02:10:23;22.50;;;12.85;;
23078;SDS011;11707;50.830;4.364;2023-05-10T02:12:49;19.20;;;12.85;;
23078;SDS011;11707;50.830;4.364;2023-05-10T02:15:22;18.60;;;12.32;;
23078;SDS011;11707;50.830;4.364;2023-05-10T02:17:49;21.05;;;12.52;;
23078;SDS011;11707;50.830;4.364;2023-05-10T02:20:16;22.45;;;13.35;;
23078;SDS011;11707;50.830;4.364;2023-05-10T02:22:43;21.25;;;12.77;;
23078;SDS011;11707;50.830;4.364;2023-05-10T02:25:12;23.05;;;11.57;;
23078;SDS011;11707;50.830;4.364;2023-05-10T02:27:39;23.55;;;13.25;;
23078;SDS011;11707;50.830;4.364;2023-05-10T02:30:10;20.27;;;12.55;;
23078;SDS011;11707;50.830;4.364;2023-05-10T02:32:37;24.00;;;12.70;;
23078;SDS011;11707;50.830;4.364;2023-05-10T02:35:06;20.50;;;11.55;;
23078;SDS011;11707;50.830;4.364;2023-05-10T02:37:33;24.35;;;12.82;;
23078;SDS011;11707;50.830;4.364;2023-05-10T02:40:00;20.20;;;11.43;;
23078;SDS011;11707;50.830;4.364;2023-05-10T02:42:28;19.75;;;11.32;;
23078;SDS011;11707;50.830;4.364;2023-05-10T02:45:05;17.95;;;11.07;;
23078;SDS011;11707;50.830;4.364;2023-05-10T02:47:35;22.33;;;11.18;;
23078;SDS011;11707;50.830;4.364;2023-05-10T02:50:01;19.95;;;11.43;;
23078;SDS011;11707;50.830;4.364;2023-05-10T02:52:29;22.95;;;11.82;;
23078;SDS011;11707;50.830;4.364;2023-05-10T02:55:03;17.55;;;10.40;;
23078;SDS011;11707;50.830;4.364;2023-05-10T02:57:34;19.27;;;10.82;;
23078;SDS011;11707;50.830;4.364;2023-05-10T03:00:03;16.23;;;10.38;;
23078;SDS011;11707;50.830;4.364;2023-05-10T03:02:30;20.73;;;11.43;;
23078;SDS011;11707;50.830;4.364;2023-05-10T03:04:56;15.75;;;10.90;;
23078;SDS011;11707;50.830;4.364;2023-05-10T03:07:21;17.10;;;10.50;;
23078;SDS011;11707;50.830;4.364;2023-05-10T03:09:48;20.33;;;11.50;;
23078;SDS011;11707;50.830;4.364;2023-05-10T03:15:13;23.33;;;11.93;;
23078;SDS011;11707;50.830;4.364;2023-05-10T03:18:00;24.05;;;12.15;;
23078;SDS011;11707;50.830;4.364;2023-05-10T03:20:31;19.75;;;12.15;;
23078;SDS011;11707;50.830;4.364;2023-05-10T03:25:41;20.65;;;13.55;;
23078;SDS011;11707;50.830;4.364;2023-05-10T03:28:08;25.70;;;13.73;;
23078;SDS011;11707;50.830;4.364;2023-05-10T03:30:34;27.85;;;15.32;;
23078;SDS011;11707;50.830;4.364;2023-05-10T03:33:07;26.88;;;14.27;;
23078;SDS011;11707;50.830;4.364;2023-05-10T03:35:36;27.30;;;14.77;;
23078;SDS011;11707;50.830;4.364;2023-05-10T03:38:01;27.35;;;14.40;;
23078;SDS011;11707;50.830;4.364;2023-05-10T03:40:27;30.27;;;15.65;;
23078;SDS011;11707;50.830;4.364;2023-05-10T03:42:56;29.23;;;15.80;;
23078;SDS011;11707;50.830;4.364;2023-05-10T03:45:22;29.27;;;16.30;;
23078;SDS011;11707;50.830;4.364;2023-05-10T03:47:48;32.03;;;16.10;;
23078;SDS011;11707;50.830;4.364;2023-05-10T03:50:13;29.20;;;16.45;;
23078;SDS011;11707;50.830;4.364;2023-05-10T03:52:39;27.48;;;16.30;;
23078;SDS011;11707;50.830;4.364;2023-05-10T03:55:05;29.63;;;16.25;;
23078;SDS011;11707;50.830;4.364;2023-05-10T03:57:31;30.08;;;18.05;;
23078;SDS011;11707;50.830;4.364;2023-05-10T03:59:57;29.00;;;16.63;;
23078;SDS011;11707;50.830;4.364;2023-05-10T04:02:22;32.30;;;18.10;;
23078;SDS011;11707;50.830;4.364;2023-05-10T04:04:48;31.73;;;17.60;;
23078;SDS011;11707;50.830;4.364;2023-05-10T04:07:14;32.67;;;17.75;;
23078;SDS011;11707;50.830;4.364;2023-05-10T04:09:40;31.10;;;17.85;;
23078;SDS011;11707;50.830;4.364;2023-05-10T04:12:06;29.17;;;17.02;;
23078;SDS011;11707;50.830;4.364;2023-05-10T04:14:34;37.28;;;19.17;;
23078;SDS011;11707;50.830;4.364;2023-05-10T04:17:00;35.60;;;18.70;;
23078;SDS011;11707;50.830;4.364;2023-05-10T04:19:28;35.08;;;18.95;;
23078;SDS011;11707;50.830;4.364;2023-05-10T04:21:55;33.17;;;19.88;;
23078;SDS011;11707;50.830;4.364;2023-05-10T04:24:20;35.50;;;19.33;;
23078;SDS011;11707;50.830;4.364;2023-05-10T04:26:46;34.08;;;18.38;;
23078;SDS011;11707;50.830;4.364;2023-05-10T04:29:12;32.28;;;19.33;;
23078;SDS011;11707;50.830;4.364;2023-05-10T04:31:37;37.50;;;20.35;;
23078;SDS011;11707;50.830;4.364;2023-05-10T04:34:03;35.42;;;20.55;;
23078;SDS011;11707;50.830;4.364;2023-05-10T04:36:29;35.88;;;19.02;;
23078;SDS011;11707;50.830;4.364;2023-05-10T04:38:55;38.53;;;20.23;;
23078;SDS011;11707;50.830;4.364;2023-05-10T04:41:20;36.67;;;21.15;;
23078;SDS011;11707;50.830;4.364;2023-05-10T04:43:46;38.80;;;21.33;;
23078;SDS011;11707;50.830;4.364;2023-05-10T04:46:17;32.20;;;19.92;;
23078;SDS011;11707;50.830;4.364;2023-05-10T04:48:43;40.03;;;21.35;;
23078;SDS011;11707;50.830;4.364;2023-05-10T04:51:11;39.65;;;21.15;;
23078;SDS011;11707;50.830;4.364;2023-05-10T04:53:37;35.10;;;20.95;;
23078;SDS011;11707;50.830;4.364;2023-05-10T04:56:03;42.42;;;22.00;;
23078;SDS011;11707;50.830;4.364;2023-05-10T04:58:31;41.33;;;21.50;;
23078;SDS011;11707;50.830;4.364;2023-05-10T05:00:57;41.00;;;21.55;;
23078;SDS011;11707;50.830;4.364;2023-05-10T05:03:29;37.78;;;20.27;;
23078;SDS011;11707;50.830;4.364;2023-05-10T05:05:55;36.75;;;21.05;;
23078;SDS011;11707;50.830;4.364;2023-05-10T05:08:20;35.60;;;20.85;;
23078;SDS011;11707;50.830;4.364;2023-05-10T05:10:47;40.53;;;22.40;;
23078;SDS011;11707;50.830;4.364;2023-05-10T05:13:15;40.35;;;20.88;;
23078;SDS011;11707;50.830;4.364;2023-05-10T05:15:40;31.85;;;18.80;;
23078;SDS011;11707;50.830;4.364;2023-05-10T05:18:06;28.83;;;17.02;;
23078;SDS011;11707;50.830;4.364;2023-05-10T05:20:34;26.13;;;15.23;;
23078;SDS011;11707;50.830;4.364;2023-05-10T05:22:59;27.98;;;15.75;;
23078;SDS011;11707;50.830;4.364;2023-05-10T05:25:25;25.85;;;15.70;;
23078;SDS011;11707;50.830;4.364;2023-05-10T05:27:54;32.70;;;16.45;;
23078;SDS011;11707;50.830;4.364;2023-05-10T05:30:19;26.92;;;15.07;;
23078;SDS011;11707;50.830;4.364;2023-05-10T05:32:45;29.63;;;15.60;;
23078;SDS011;11707;50.830;4.364;2023-05-10T05:35:12;30.27;;;15.88;;
23078;SDS011;11707;50.830;4.364;2023-05-10T05:37:38;27.98;;;15.57;;
23078;SDS011;11707;50.830;4.364;2023-05-10T05:40:04;26.38;;;15.57;;
23078;SDS011;11707;50.830;4.364;2023-05-10T05:42:30;27.98;;;15.63;;
23078;SDS011;11707;50.830;4.364;2023-05-10T05:44:56;24.88;;;14.52;;
23078;SDS011;11707;50.830;4.364;2023-05-10T05:47:22;32.00;;;15.75;;
23078;SDS011;11707;50.830;4.364;2023-05-10T05:49:48;28.77;;;16.42;;
23078;SDS011;11707;50.830;4.364;2023-05-10T05:52:13;33.22;;;16.60;;
23078;SDS011;11707;50.830;4.364;2023-05-10T05:54:39;33.10;;;17.80;;
23078;SDS011;11707;50.830;4.364;2023-05-10T05:57:05;28.17;;;18.05;;
23078;SDS011;11707;50.830;4.364;2023-05-10T05:59:30;35.55;;;17.80;;
23078;SDS011;11707;50.830;4.364;2023-05-10T06:01:56;32.97;;;17.05;;
23078;SDS011;11707;50.830;4.364;2023-05-10T06:04:22;31.33;;;16.58;;
23078;SDS011;11707;50.830;4.364;2023-05-10T06:06:48;34.72;;;17.23;;
23078;SDS011;11707;50.830;4.364;2023-05-10T06:09:18;32.38;;;15.75;;
23078;SDS011;11707;50.830;4.364;2023-05-10T06:11:43;28.58;;;14.55;;
23078;SDS011;11707;50.830;4.364;2023-05-10T06:14:12;28.13;;;14.10;;
23078;SDS011;11707;50.830;4.364;2023-05-10T06:16:37;26.60;;;12.80;;
23078;SDS011;11707;50.830;4.364;2023-05-10T06:19:03;25.48;;;11.90;;
23078;SDS011;11707;50.830;4.364;2023-05-10T06:21:29;25.70;;;13.30;;
23078;SDS011;11707;50.830;4.364;2023-05-10T06:23:55;23.75;;;14.32;;
23078;SDS011;11707;50.830;4.364;2023-05-10T06:26:20;19.95;;;10.48;;
23078;SDS011;11707;50.830;4.364;2023-05-10T06:28:46;20.25;;;11.52;;
23078;SDS011;11707;50.830;4.364;2023-05-10T06:31:12;20.73;;;10.98;;
23078;SDS011;11707;50.830;4.364;2023-05-10T06:33:38;18.63;;;10.15;;
23078;SDS011;11707;50.830;4.364;2023-05-10T06:36:04;18.67;;;9.65;;
23078;SDS011;11707;50.830;4.364;2023-05-10T06:38:29;18.92;;;8.20;;
23078;SDS011;11707;50.830;4.364;2023-05-10T06:40:55;17.75;;;6.85;;
23078;SDS011;11707;50.830;4.364;2023-05-10T06:43:21;13.70;;;6.80;;
23078;SDS011;11707;50.830;4.364;2023-05-10T06:45:47;15.45;;;7.07;;
23078;SDS011;11707;50.830;4.364;2023-05-10T06:48:13;12.18;;;8.23;;
23078;SDS011;11707;50.830;4.364;2023-05-10T06:50:39;15.85;;;8.23;;
23078;SDS011;11707;50.830;4.364;2023-05-10T06:53:04;14.40;;;7.57;;
23078;SDS011;11707;50.830;4.364;2023-05-10T06:55:35;17.15;;;8.75;;
23078;SDS011;11707;50.830;4.364;2023-05-10T06:58:01;14.30;;;8.52;;
23078;SDS011;11707;50.830;4.364;2023-05-10T07:00:27;24.20;;;12.18;;
23078;SDS011;11707;50.830;4.364;2023-05-10T07:02:52;18.70;;;10.35;;
23078;SDS011;11707;50.830;4.364;2023-05-10T07:05:18;18.65;;;9.38;;
23078;SDS011;11707;50.830;4.364;2023-05-10T07:07:44;16.33;;;9.98;;
23078;SDS011;11707;50.830;4.364;2023-05-10T07:10:13;19.85;;;10.63;;
23078;SDS011;11707;50.830;4.364;2023-05-10T07:12:39;23.63;;;11.70;;
23078;SDS011;11707;50.830;4.364;2023-05-10T07:15:05;19.63;;;10.20;;
23078;SDS011;11707;50.830;4.364;2023-05-10T07:17:31;20.83;;;9.77;;
23078;SDS011;11707;50.830;4.364;2023-05-10T07:19:58;19.63;;;9.85;;
23078;SDS011;11707;50.830;4.364;2023-05-10T07:22:25;23.15;;;10.35;;
23078;SDS011;11707;50.830;4.364;2023-05-10T07:24:50;21.30;;;11.60;;
23078;SDS011;11707;50.830;4.364;2023-05-10T07:27:16;28.50;;;11.52;;
23078;SDS011;11707;50.830;4.364;2023-05-10T07:29:42;23.67;;;12.00;;
23078;SDS011;11707;50.830;4.364;2023-05-10T07:32:08;23.17;;;11.35;;
23078;SDS011;11707;50.830;4.364;2023-05-10T07:34:33;22.90;;;11.57;;
23078;SDS011;11707;50.830;4.364;2023-05-10T07:36:59;20.05;;;10.63;;
23078;SDS011;11707;50.830;4.364;2023-05-10T07:39:26;19.95;;;10.55;;
23078;SDS011;11707;50.830;4.364;2023-05-10T07:41:52;17.30;;;9.77;;
23078;SDS011;11707;50.830;4.364;2023-05-10T07:44:17;22.27;;;10.68;;
23078;SDS011;11707;50.830;4.364;2023-05-10T07:46:45;16.23;;;9.50;;
23078;SDS011;11707;50.830;4.364;2023-05-10T07:49:11;20.17;;;10.00;;
23078;SDS011;11707;50.830;4.364;2023-05-10T07:51:36;17.42;;;8.77;;
23078;SDS011;11707;50.830;4.364;2023-05-10T07:54:02;15.90;;;7.88;;
23078;SDS011;11707;50.830;4.364;2023-05-10T07:56:29;12.88;;;8.45;;
23078;SDS011;11707;50.830;4.364;2023-05-10T07:58:57;16.02;;;8.50;;
23078;SDS011;11707;50.830;4.364;2023-05-10T08:01:26;17.38;;;9.15;;
23078;SDS011;11707;50.830;4.364;2023-05-10T08:03:58;12.85;;;7.95;;
23078;SDS011;11707;50.830;4.364;2023-05-10T08:06:24;14.35;;;8.20;;
23078;SDS011;11707;50.830;4.364;2023-05-10T08:08:52;14.68;;;7.65;;
23078;SDS011;11707;50.830;4.364;2023-05-10T08:11:19;16.17;;;7.65;;
23078;SDS011;11707;50.830;4.364;2023-05-10T08:13:46;14.63;;;7.43;;
23078;SDS011;11707;50.830;4.364;2023-05-10T08:16:13;12.50;;;7.47;;
23078;SDS011;11707;50.830;4.364;2023-05-10T08:18:38;13.52;;;7.32;;
23078;SDS011;11707;50.830;4.364;2023-05-10T08:21:08;10.95;;;5.93;;
23078;SDS011;11707;50.830;4.364;2023-05-10T08:23:36;14.32;;;6.65;;
23078;SDS011;11707;50.830;4.364;2023-05-10T08:26:02;11.70;;;6.57;;
23078;SDS011;11707;50.830;4.364;2023-05-10T08:28:28;9.00;;;5.55;;
23078;SDS011;11707;50.830;4.364;2023-05-10T08:30:53;10.27;;;6.05;;
23078;SDS011;11707;50.830;4.364;2023-05-10T08:33:21;8.80;;;5.30;;
23078;SDS011;11707;50.830;4.364;2023-05-10T08:35:47;10.00;;;5.90;;
23078;SDS011;11707;50.830;4.364;2023-05-10T08:38:13;7.80;;;4.90;;
23078;SDS011;11707;50.830;4.364;2023-05-10T08:40:42;12.40;;;5.80;;
23078;SDS011;11707;50.830;4.364;2023-05-10T08:43:10;9.88;;;5.88;;
23078;SDS011;11707;50.830;4.364;2023-05-10T08:45:43;9.23;;;5.53;;
23078;SDS011;11707;50.830;4.364;2023-05-10T08:48:13;10.60;;;6.45;;
23078;SDS011;11707;50.830;4.364;2023-05-10T08:50:41;10.93;;;6.03;;
23078;SDS011;11707;50.830;4.364;2023-05-10T08:53:11;12.00;;;5.57;;
23078;SDS011;11707;50.830;4.364;2023-05-10T08:55:39;11.95;;;6.18;;
23078;SDS011;11707;50.830;4.364;2023-05-10T08:58:07;10.50;;;6.57;;
23078;SDS011;11707;50.830;4.364;2023-05-10T09:00:34;12.15;;;5.72;;
23078;SDS011;11707;50.830;4.364;2023-05-10T09:03:00;11.98;;;6.30;;
23078;SDS011;11707;50.830;4.364;2023-05-10T09:05:27;11.15;;;7.03;;
23078;SDS011;11707;50.830;4.364;2023-05-10T09:07:56;8.70;;;6.20;;
23078;SDS011;11707;50.830;4.364;2023-05-10T09:10:22;12.88;;;6.72;;
23078;SDS011;11707;50.830;4.364;2023-05-10T09:12:51;11.55;;;6.38;;
23078;SDS011;11707;50.830;4.364;2023-05-10T09:15:18;9.57;;;5.78;;
23078;SDS011;11707;50.830;4.364;2023-05-10T09:17:47;9.43;;;6.55;;
23078;SDS011;11707;50.830;4.364;2023-05-10T09:20:14;10.40;;;5.93;;
23078;SDS011;11707;50.830;4.364;2023-05-10T09:22:42;11.48;;;5.32;;
23078;SDS011;11707;50.830;4.364;2023-05-10T09:27:40;7.90;;;5.30;;
23078;SDS011;11707;50.830;4.364;2023-05-10T09:30:09;6.13;;;4.57;;
23078;SDS011;11707;50.830;4.364;2023-05-10T09:35:11;13.30;;;6.80;;
23078;SDS011;11707;50.830;4.364;2023-05-10T09:37:39;7.82;;;5.10;;
23078;SDS011;11707;50.830;4.364;2023-05-10T09:40:12;6.75;;;5.03;;
23078;SDS011;11707;50.830;4.364;2023-05-10T09:42:41;6.90;;;5.03;;
23078;SDS011;11707;50.830;4.364;2023-05-10T09:45:08;8.85;;;5.20;;
23078;SDS011;11707;50.830;4.364;2023-05-10T09:47:34;9.88;;;5.55;;
23078;SDS011;11707;50.830;4.364;2023-05-10T09:50:01;9.13;;;5.47;;
23078;SDS011;11707;50.830;4.364;2023-05-10T09:52:28;7.55;;;5.32;;
23078;SDS011;11707;50.830;4.364;2023-05-10T09:55:24;9.77;;;5.95;;
23078;SDS011;11707;50.830;4.364;2023-05-10T09:58:00;9.70;;;6.43;;
23078;SDS011;11707;50.830;4.364;2023-05-10T10:00:27;8.93;;;5.72;;
23078;SDS011;11707;50.830;4.364;2023-05-10T10:02:57;7.63;;;5.97;;
23078;SDS011;11707;50.830;4.364;2023-05-10T10:05:30;9.15;;;5.20;;
23078;SDS011;11707;50.830;4.364;2023-05-10T10:07:57;16.55;;;7.05;;
23078;SDS011;11707;50.830;4.364;2023-05-10T10:10:24;10.85;;;6.22;;
23078;SDS011;11707;50.830;4.364;2023-05-10T10:12:51;10.65;;;5.95;;
23078;SDS011;11707;50.830;4.364;2023-05-10T10:15:17;7.10;;;5.68;;
23078;SDS011;11707;50.830;4.364;2023-05-10T10:17:46;8.68;;;5.80;;
23078;SDS011;11707;50.830;4.364;2023-05-10T10:20:13;7.93;;;5.80;;
23078;SDS011;11707;50.830;4.364;2023-05-10T10:22:39;8.23;;;5.50;;
23078;SDS011;11707;50.830;4.364;2023-05-10T10:25:05;6.38;;;5.20;;
23078;SDS011;11707;50.830;4.364;2023-05-10T10:35:38;9.55;;;6.70;;
23078;SDS011;11707;50.830;4.364;2023-05-10T10:38:05;11.85;;;7.00;;
23078;SDS011;11707;50.830;4.364;2023-05-10T10:40:34;15.70;;;8.20;;
23078;SDS011;11707;50.830;4.364;2023-05-10T10:48:35;17.48;;;5.88;;
23078;SDS011;11707;50.830;4.364;2023-05-10T10:51:01;9.50;;;5.80;;
23078;SDS011;11707;50.830;4.364;2023-05-10T10:53:27;8.80;;;5.40;;
23078;SDS011;11707;50.830;4.364;2023-05-10T10:56:14;7.30;;;5.28;;
23078;SDS011;11707;50.830;4.364;2023-05-10T10:58:40;8.60;;;5.88;;
23078;SDS011;11707;50.830;4.364;2023-05-10T11:01:17;10.55;;;5.55;;
23078;SDS011;11707;50.830;4.364;2023-05-10T11:06:33;7.97;;;5.57;;
23078;SDS011;11707;50.830;4.364;2023-05-10T11:09:07;10.73;;;5.80;;
23078;SDS011;11707;50.830;4.364;2023-05-10T11:11:35;6.30;;;5.22;;
23078;SDS011;11707;50.830;4.364;2023-05-10T11:14:13;7.78;;;5.75;;
23078;SDS011;11707;50.830;4.364;2023-05-10T11:16:42;10.98;;;8.20;;
23078;SDS011;11707;50.830;4.364;2023-05-10T11:19:10;11.45;;;7.57;;
23078;SDS011;11707;50.830;4.364;2023-05-10T11:21:47;6.22;;;4.72;;
23078;SDS011;11707;50.830;4.364;2023-05-10T11:24:15;7.13;;;5.13;;
23078;SDS011;11707;50.830;4.364;2023-05-10T11:26:43;7.05;;;5.38;;
23078;SDS011;11707;50.830;4.364;2023-05-10T11:29:09;10.90;;;5.55;;
23078;SDS011;11707;50.830;4.364;2023-05-10T11:31:42;6.25;;;4.68;;
23078;SDS011;11707;50.830;4.364;2023-05-10T11:34:10;7.13;;;4.88;;
23078;SDS011;11707;50.830;4.364;2023-05-10T11:36:36;6.13;;;3.95;;
23078;SDS011;11707;50.830;4.364;2023-05-10T11:39:02;6.47;;;4.65;;
23078;SDS011;11707;50.830;4.364;2023-05-10T11:41:31;6.93;;;4.30;;
23078;SDS011;11707;50.830;4.364;2023-05-10T11:44:00;8.18;;;5.00;;
23078;SDS011;11707;50.830;4.364;2023-05-10T11:46:29;6.32;;;4.78;;
23078;SDS011;11707;50.830;4.364;2023-05-10T11:48:57;7.68;;;4.65;;
23078;SDS011;11707;50.830;4.364;2023-05-10T11:51:26;7.63;;;4.43;;
23078;SDS011;11707;50.830;4.364;2023-05-10T11:53:53;4.47;;;3.95;;
23078;SDS011;11707;50.830;4.364;2023-05-10T11:56:22;6.88;;;4.10;;
23078;SDS011;11707;50.830;4.364;2023-05-10T11:58:57;6.50;;;4.88;;
23078;SDS011;11707;50.830;4.364;2023-05-10T12:01:23;6.00;;;4.32;;
23078;SDS011;11707;50.830;4.364;2023-05-10T12:03:51;6.15;;;5.00;;
23078;SDS011;11707;50.830;4.364;2023-05-10T12:06:18;8.77;;;6.05;;
23078;SDS011;11707;50.830;4.364;2023-05-10T12:08:46;8.20;;;6.05;;
23078;SDS011;11707;50.830;4.364;2023-05-10T12:11:12;9.73;;;6.78;;
23078;SDS011;11707;50.830;4.364;2023-05-10T12:13:40;10.85;;;6.20;;
23078;SDS011;11707;50.830;4.364;2023-05-10T12:16:18;9.13;;;5.55;;
23078;SDS011;11707;50.830;4.364;2023-05-10T12:18:48;7.72;;;6.20;;
23078;SDS011;11707;50.830;4.364;2023-05-10T12:21:15;10.20;;;6.90;;
23078;SDS011;11707;50.830;4.364;2023-05-10T12:23:44;11.27;;;6.20;;
23078;SDS011;11707;50.830;4.364;2023-05-10T12:26:11;10.27;;;7.13;;
23078;SDS011;11707;50.830;4.364;2023-05-10T12:28:37;10.02;;;6.70;;
23078;SDS011;11707;50.830;4.364;2023-05-10T12:31:05;11.52;;;6.75;;
23078;SDS011;11707;50.830;4.364;2023-05-10T12:36:04;12.70;;;7.00;;
23078;SDS011;11707;50.830;4.364;2023-05-10T12:40:59;11.48;;;7.43;;
23078;SDS011;11707;50.830;4.364;2023-05-10T12:43:26;10.00;;;6.40;;
23078;SDS011;11707;50.830;4.364;2023-05-10T12:45:52;11.88;;;6.60;;
23078;SDS011;11707;50.830;4.364;2023-05-10T12:48:20;7.72;;;6.38;;
23078;SDS011;11707;50.830;4.364;2023-05-10T12:50:48;7.95;;;6.07;;
23078;SDS011;11707;50.830;4.364;2023-05-10T12:53:14;9.88;;;5.28;;
23078;SDS011;11707;50.830;4.364;2023-05-10T12:55:43;7.13;;;4.65;;
23078;SDS011;11707;50.830;4.364;2023-05-10T12:58:11;6.30;;;4.75;;
23078;SDS011;11707;50.830;4.364;2023-05-10T13:00:37;7.28;;;4.93;;
23078;SDS011;11707;50.830;4.364;2023-05-10T13:03:03;6.82;;;4.07;;
23078;SDS011;11707;50.830;4.364;2023-05-10T13:05:31;6.38;;;3.97;;
23078;SDS011;11707;50.830;4.364;2023-05-10T13:07:57;5.20;;;3.72;;
23078;SDS011;11707;50.830;4.364;2023-05-10T13:10:23;7.88;;;3.63;;
23078;SDS011;11707;50.830;4.364;2023-05-10T13:12:50;5.60;;;2.90;;
23078;SDS011;11707;50.830;4.364;2023-05-10T13:15:18;3.58;;;2.80;;
23078;SDS011;11707;50.830;4.364;2023-05-10T13:17:43;4.40;;;3.10;;
23078;SDS011;11707;50.830;4.364;2023-05-10T13:20:10;6.93;;;4.25;;
23078;SDS011;11707;50.830;4.364;2023-05-10T13:22:36;6.53;;;4.15;;
23078;SDS011;11707;50.830;4.364;2023-05-10T13:25:01;8.20;;;3.97;;
23078;SDS011;11707;50.830;4.364;2023-05-10T13:27:27;8.15;;;4.85;;
23078;SDS011;11707;50.830;4.364;2023-05-10T13:29:53;5.90;;;5.00;;
23078;SDS011;11707;50.830;4.364;2023-05-10T13:32:20;7.90;;;5.55;;
23078;SDS011;11707;50.830;4.364;2023-05-10T13:34:45;10.57;;;6.30;;
23078;SDS011;11707;50.830;4.364;2023-05-10T13:37:11;8.30;;;5.00;;
23078;SDS011;11707;50.830;4.364;2023-05-10T13:39:37;9.60;;;5.70;;
23078;SDS011;11707;50.830;4.364;2023-05-10T13:42:03;8.75;;;4.88;;
23078;SDS011;11707;50.830;4.364;2023-05-10T13:44:29;8.63;;;5.18;;
23078;SDS011;11707;50.830;4.364;2023-05-10T13:46:55;13.18;;;5.60;;
23078;SDS011;11707;50.830;4.364;2023-05-10T13:49:22;7.22;;;5.25;;
23078;SDS011;11707;50.830;4.364;2023-05-10T13:51:47;8.43;;;5.45;;
23078;SDS011;11707;50.830;4.364;2023-05-10T13:54:13;7.25;;;5.65;;
23078;SDS011;11707;50.830;4.364;2023-05-10T13:56:39;8.25;;;6.25;;
23078;SDS011;11707;50.830;4.364;2023-05-10T13:59:08;10.60;;;6.38;;
23078;SDS011;11707;50.830;4.364;2023-05-10T14:01:34;14.05;;;8.18;;
23078;SDS011;11707;50.830;4.364;2023-05-10T14:04:02;9.95;;;7.28;;
23078;SDS011;11707;50.830;4.364;2023-05-10T14:06:28;8.63;;;7.40;;
23078;SDS011;11707;50.830;4.364;2023-05-10T14:08:53;10.15;;;7.97;;
23078;SDS011;11707;50.830;4.364;2023-05-10T14:11:19;12.02;;;9.32;;
23078;SDS011;11707;50.830;4.364;2023-05-10T14:13:45;11.55;;;8.40;;
23078;SDS011;11707;50.830;4.364;2023-05-10T14:16:11;10.35;;;7.95;;
23078;SDS011;11707;50.830;4.364;2023-05-10T14:18:37;11.93;;;9.00;;
23078;SDS011;11707;50.830;4.364;2023-05-10T14:21:05;14.23;;;9.43;;
23078;SDS011;11707;50.830;4.364;2023-05-10T14:23:31;13.40;;;9.52;;
23078;SDS011;11707;50.830;4.364;2023-05-10T14:25:56;11.60;;;9.88;;
23078;SDS011;11707;50.830;4.364;2023-05-10T14:28:22;14.32;;;9.27;;
23078;SDS011;11707;50.830;4.364;2023-05-10T14:30:49;15.38;;;10.20;;
23078;SDS011;11707;50.830;4.364;2023-05-10T14:33:16;14.13;;;9.27;;
23078;SDS011;11707;50.830;4.364;2023-05-10T14:35:42;13.10;;;8.48;;
23078;SDS011;11707;50.830;4.364;2023-05-10T14:38:07;13.85;;;8.02;;
23078;SDS011;11707;50.830;4.364;2023-05-10T14:40:33;12.50;;;7.60;;
23078;SDS011;11707;50.830;4.364;2023-05-10T14:42:59;12.38;;;8.35;;
23078;SDS011;11707;50.830;4.364;2023-05-10T14:45:25;13.80;;;8.60;;
23078;SDS011;11707;50.830;4.364;2023-05-10T14:47:51;17.52;;;10.23;;
23078;SDS011;11707;50.830;4.364;2023-05-10T14:50:17;11.90;;;8.73;;
23078;SDS011;11707;50.830;4.364;2023-05-10T14:52:43;16.88;;;10.65;;
23078;SDS011;11707;50.830;4.364;2023-05-10T14:55:09;14.48;;;10.80;;
23078;SDS011;11707;50.830;4.364;2023-05-10T14:57:35;16.17;;;9.68;;
23078;SDS011;11707;50.830;4.364;2023-05-10T15:00:01;12.73;;;9.13;;
23078;SDS011;11707;50.830;4.364;2023-05-10T15:02:28;11.15;;;9.07;;
23078;SDS011;11707;50.830;4.364;2023-05-10T15:04:56;14.02;;;10.57;;
23078;SDS011;11707;50.830;4.364;2023-05-10T15:07:22;17.20;;;9.55;;
23078;SDS011;11707;50.830;4.364;2023-05-10T15:09:51;14.95;;;8.40;;
23078;SDS011;11707;50.830;4.364;2023-05-10T15:12:17;10.48;;;6.68;;
23078;SDS011;11707;50.830;4.364;2023-05-10T15:14:43;10.52;;;5.85;;
23078;SDS011;11707;50.830;4.364;2023-05-10T15:17:09;10.93;;;5.63;;
23078;SDS011;11707;50.830;4.364;2023-05-10T15:19:35;6.75;;;5.22;;
23078;SDS011;11707;50.830;4.364;2023-05-10T15:22:01;8.23;;;4.60;;
23078;SDS011;11707;50.830;4.364;2023-05-10T15:24:27;7.15;;;5.13;;